Storm Events Database

Event Details

Event Thunderstorm Wind
Magnitude 58 kts.
State MISSISSIPPI
County/Area FORREST
WFO JAN
Report Source Emergency Manager
NCDC Data Source CSV
Begin Date 2009-04-02 12:55:00.0 CST-6
Begin Location 1SE HATTIESBURG
Begin Lat/Lon 31.31/-89.31
End Date 2009-04-02 12:55:00.0 CST-6
Deaths Direct/Indirect 0/0 (fatality details below, when available...)
Injuries Direct/Indirect 0/0
Property Damage 2.50K
Crop Damage 0.00K
Episode Narrative A powerful storm system helped develop a deep low pressure area which moved from North Texas to Northwest Arkansas. The combination of cold air aloft, strong jet dynamics, and the clash with an unstable airmass helped to send a line of severe storms across the region during the day. The line exited the region by mid afternoon. As the core of the upper low pressure system crossed the area, a second bowing line of storms crossed the northern portion of the county warning area during the late afternoon and early evening. Numerous reports of hail and wind damage occurred with this complex system as it tracked through the region.
Event Narrative Several trees and a few power lines were blown down across East Hattiesburg.


     ‚Äč



All events for this episode:

Location County/Zone St. Date Time T.Z. Type Mag Dth Inj PrD CrD
Totals: 0 0 135.50K 0.00K
MOUND CITY BOLIVAR CO. MS 04/02/2009 09:21 CST-6 Hail 1.00 in. 0 0 0.00K 0.00K
DREW SUNFLOWER CO. MS 04/02/2009 09:50 CST-6 Hail 0.75 in. 0 0 0.00K 0.00K
LOMBARDY SUNFLOWER CO. MS 04/02/2009 09:51 CST-6 Hail 0.75 in. 0 0 0.00K 0.00K
THAYER LINCOLN CO. MS 04/02/2009 10:41 CST-6 Hail 1.00 in. 0 0 0.00K 0.00K
HEUCKS LINCOLN CO. MS 04/02/2009 10:43 CST-6 Thunderstorm Wind 50 kts. EG 0 0 0.00K 0.00K
FLORENCE RANKIN CO. MS 04/02/2009 10:47 CST-6 Hail 1.00 in. 0 0 0.00K 0.00K
ASHLEY COPIAH CO. MS 04/02/2009 10:49 CST-6 Hail 0.75 in. 0 0 0.00K 0.00K
JOHNSTONS STATION LINCOLN CO. MS 04/02/2009 10:50 CST-6 Hail 1.75 in. 0 0 2.00K 0.00K
BRISTERS STORE LAWRENCE CO. MS 04/02/2009 11:20 CST-6 Hail 1.00 in. 0 0 0.00K 0.00K
PINOLA SIMPSON CO. MS 04/02/2009 11:21 CST-6 Hail 1.00 in. 0 0 0.00K 0.00K
GROVETON SCOTT CO. MS 04/02/2009 11:25 CST-6 Hail 1.00 in. 0 0 0.00K 0.00K
SPROLES SIDING LEAKE CO. MS 04/02/2009 11:38 CST-6 Hail 1.25 in. 0 0 0.00K 0.00K
EUPORA ARPT WEBSTER CO. MS 04/02/2009 11:40 CST-6 Thunderstorm Wind 50 kts. EG 0 0 1.00K 0.00K
MORTON SCOTT CO. MS 04/02/2009 11:40 CST-6 Hail 0.75 in. 0 0 0.00K 0.00K
MARTINVILLE SIMPSON CO. MS 04/02/2009 11:53 CST-6 Hail 0.75 in. 0 0 0.00K 0.00K
PULASKI SCOTT CO. MS 04/02/2009 12:00 CST-6 Hail 0.88 in. 0 0 0.00K 0.00K
SUMBAX MARION CO. MS 04/02/2009 12:05 CST-6 Thunderstorm Wind 50 kts. EG 0 0 4.00K 0.00K
ALICE NESHOBA CO. MS 04/02/2009 12:08 CST-6 Hail 0.88 in. 0 0 0.00K 0.00K
ZAMA WINSTON CO. MS 04/02/2009 12:09 CST-6 Hail 0.75 in. 0 0 0.00K 0.00K
HATHORN JEFFERSON DAVIS CO. MS 04/02/2009 12:10 CST-6 Hail 0.75 in. 0 0 0.00K 0.00K
ACKERMAN CHOCTAW CO. MS 04/02/2009 12:17 CST-6 Hail 1.00 in. 0 0 0.00K 0.00K
ROSS WINSTON CO. MS 04/02/2009 12:23 CST-6 Hail 0.75 in. 0 0 0.00K 0.00K
BUGH OKTIBBEHA CO. MS 04/02/2009 12:25 CST-6 Hail 1.75 in. 0 0 6.00K 0.00K
CONEHATTA NEWTON CO. MS 04/02/2009 12:25 CST-6 Thunderstorm Wind 50 kts. EG 0 0 0.00K 0.00K
PHEBA CLAY CO. MS 04/02/2009 12:25 CST-6 Hail 1.00 in. 0 0 0.00K 0.00K
STRATTON NEWTON CO. MS 04/02/2009 12:29 CST-6 Hail 0.75 in. 0 0 0.00K 0.00K
BLUNTS NEWTON CO. MS 04/02/2009 12:40 CST-6 Thunderstorm Wind 62 kts. EG 0 0 10.00K 0.00K
VERBA JASPER CO. MS 04/02/2009 12:43 CST-6 Thunderstorm Wind 50 kts. EG 0 0 1.50K 0.00K
LUMBERTON LAMAR CO. MS 04/02/2009 12:46 CST-6 Thunderstorm Wind 58 kts. EG 0 0 2.00K 0.00K
ABBOTT CLAY CO. MS 04/02/2009 12:48 CST-6 Thunderstorm Wind 65 kts. EG 0 0 10.00K 0.00K
RAWLS SPGS FORREST CO. MS 04/02/2009 12:50 CST-6 Thunderstorm Wind 50 kts. EG 0 0 5.00K 0.00K
HATTIESBURG FORREST CO. MS 04/02/2009 12:55 CST-6 Thunderstorm Wind 58 kts. EG 0 0 2.50K 0.00K
RIO KEMPER CO. MS 04/02/2009 12:56 CST-6 Thunderstorm Wind 60 kts. EG 0 0 20.00K 0.00K
TUCKERS JONES CO. MS 04/02/2009 13:08 CST-6 Thunderstorm Wind 50 kts. EG 0 0 1.50K 0.00K
MERIDIAN LAUDERDALE CO. MS 04/02/2009 13:15 CST-6 Thunderstorm Wind 50 kts. EG 0 0 0.00K 0.00K
WEST PT CLAY CO. MS 04/02/2009 13:20 CST-6 Thunderstorm Wind 55 kts. EG 0 0 6.00K 0.00K
MACON MUNI ARPT NOXUBEE CO. MS 04/02/2009 13:33 CST-6 Thunderstorm Wind 50 kts. EG 0 0 0.00K 0.00K
REFUGE WASHINGTON CO. MS 04/02/2009 15:18 CST-6 Hail 0.75 in. 0 0 0.00K 0.00K
HEATHMAN SUNFLOWER CO. MS 04/02/2009 15:50 CST-6 Hail 0.75 in. 0 0 0.00K 0.00K
INDIANOLA SUNFLOWER CO. MS 04/02/2009 15:55 CST-6 Thunderstorm Wind 50 kts. EG 0 0 0.00K 0.00K
BOLIVAR (ZONE) BOLIVAR (ZONE) MS 04/02/2009 16:00 CST-6 Strong Wind 43 kts. EG 0 0 40.00K 0.00K
DUNCANS CROSSING GRENADA CO. MS 04/02/2009 16:45 CST-6 Thunderstorm Wind 58 kts. EG 0 0 4.00K 0.00K
VALLEY HILL CARROLL CO. MS 04/02/2009 16:54 CST-6 Thunderstorm Wind 60 kts. EG 0 0 5.00K 0.00K
MATHISTON WEBSTER CO. MS 04/02/2009 17:47 CST-6 Thunderstorm Wind 60 kts. EG 0 0 2.00K 0.00K
REFORM CHOCTAW CO. MS 04/02/2009 17:47 CST-6 Thunderstorm Wind 55 kts. EG 0 0 3.00K 0.00K
MONTPELIER CLAY CO. MS 04/02/2009 17:59 CST-6 Thunderstorm Wind 65 kts. EG 0 0 10.00K 0.00K
WEST PT CLAY CO. MS 04/02/2009 18:20 CST-6 Hail 0.75 in. 0 0 0.00K 0.00K
COLLEGE LOWNDES CO. MS 04/02/2009 18:43 CST-6 Thunderstorm Wind 50 kts. EG 0 0 0.00K 0.00K
INTERSTATE CITY LOWNDES CO. MS 04/02/2009 18:43 CST-6 Hail 0.75 in. 0 0 0.00K 0.00K
Totals: 0 0 135.50K 0.00K